Time;durP1;ratioP1;P1;durP2;ratioP2;P2;SDS_P1;SDS_P2;PMS_P1;PMS_P2;Temp;Humidity;BMP_temperature;BMP_pressure;BME280_temperature;BME280_humidity;BME280_pressure;Samples;Min_cycle;Max_cycle;Signal;HPM_P1;HPM_P2
2022/09/16 00:00:48;;;;;;;5.30;1.03;;;;;;;12.86;94.69;99987.78;5035226;28;20439;-69
2022/09/16 00:03:16;;;;;;;3.03;0.87;;;;;;;12.81;94.96;99993.44;5035246;28;20459;-69
2022/09/16 00:05:43;;;;;;;5.50;0.93;;;;;;;12.78;94.55;99988.63;5034808;28;20454;-67
2022/09/16 00:08:10;;;;;;;3.43;0.70;;;;;;;12.79;94.13;99987.53;5035034;28;20541;-68
2022/09/16 00:10:37;;;;;;;3.03;0.60;;;;;;;12.76;94.71;99990.91;5035043;28;20446;-69
2022/09/16 00:13:04;;;;;;;3.17;0.83;;;;;;;12.75;94.02;99978.44;5035103;28;20509;-69
2022/09/16 00:15:30;;;;;;;4.50;0.60;;;;;;;12.70;95.10;99981.34;5034965;28;20492;-69
2022/09/16 00:17:58;;;;;;;3.00;0.60;;;;;;;12.76;94.53;99990.13;5034585;28;20994;-69
2022/09/16 00:20:25;;;;;;;4.47;0.90;;;;;;;12.71;94.71;99993.81;5034880;28;20466;-69
2022/09/16 00:22:51;;;;;;;3.80;1.00;;;;;;;12.68;94.57;99983.59;5034557;28;20447;-69
2022/09/16 00:25:18;;;;;;;3.20;0.80;;;;;;;12.71;94.47;99980.25;5034819;28;20491;-70
2022/09/16 00:27:47;;;;;;;2.97;0.70;;;;;;;12.69;94.12;99985.19;5034728;28;20483;-68
2022/09/16 00:30:13;;;;;;;5.50;0.70;;;;;;;12.63;95.05;99987.31;5034721;28;20446;-69
2022/09/16 00:32:40;;;;;;;3.83;1.03;;;;;;;12.67;94.41;99986.66;5034663;28;20493;-69
2022/09/16 00:35:08;;;;;;;3.33;0.77;;;;;;;12.60;94.63;99993.38;5034617;28;20450;-69
2022/09/16 00:37:35;;;;;;;3.73;0.93;;;;;;;12.59;94.75;99989.09;5034113;28;20955;-69
2022/09/16 00:40:01;;;;;;;3.00;0.77;;;;;;;12.60;94.98;100000.75;5034149;28;20482;-69
2022/09/16 00:42:28;;;;;;;3.03;0.60;;;;;;;12.62;94.82;99995.81;5034143;28;20439;-70
2022/09/16 00:44:58;;;;;;;3.20;0.70;;;;;;;12.62;94.54;100002.03;5034522;28;20455;-70
2022/09/16 00:47:31;;;;;;;3.00;0.70;;;;;;;12.56;95.08;100000.59;5034350;28;20471;-70
2022/09/16 00:50:02;;;;;;;4.40;0.93;;;;;;;12.55;96.02;100003.66;5034270;28;20868;-70
2022/09/16 00:52:31;;;;;;;3.80;0.50;;;;;;;12.54;96.17;99999.34;5034302;28;20478;-70
2022/09/16 00:55:01;;;;;;;2.90;0.63;;;;;;;12.59;95.64;100002.69;5033947;28;20454;-70
2022/09/16 00:57:27;;;;;;;3.20;0.70;;;;;;;12.52;96.40;100007.81;5034200;28;20436;-71
2022/09/16 00:59:55;;;;;;;3.10;0.80;;;;;;;12.53;96.32;100004.00;5033800;28;20463;-70
2022/09/16 01:02:23;;;;;;;2.90;0.70;;;;;;;12.47;96.70;100007.22;5033807;28;20470;-71
2022/09/16 01:04:54;;;;;;;3.63;0.80;;;;;;;12.44;96.89;99999.72;5033775;28;20911;-71
2022/09/16 01:07:30;;;;;;;3.70;0.90;;;;;;;12.44;97.16;99999.72;5033933;28;20467;-70
2022/09/16 01:09:58;;;;;;;3.10;0.60;;;;;;;12.35;97.72;99997.88;5033937;28;20502;-71
2022/09/16 01:12:28;;;;;;;3.60;0.83;;;;;;;12.38;98.38;99999.13;5033939;28;20431;-71
2022/09/16 01:14:54;;;;;;;3.63;0.87;;;;;;;12.32;99.09;99993.06;5033564;28;20474;-71
2022/09/16 01:17:54;;;;;;;3.53;0.90;;;;;;;12.27;99.10;99987.84;5033174;28;20444;-71
2022/09/16 01:20:35;;;;;;;3.97;1.27;;;;;;;12.30;98.97;99994.50;5033761;28;20446;-70
2022/09/16 01:23:18;;;;;;;3.17;1.07;;;;;;;12.29;99.00;99993.72;5033638;28;20515;-71
2022/09/16 01:26:05;;;;;;;5.70;0.87;;;;;;;12.26;99.48;99999.00;5036376;28;20797;-71
2022/09/16 01:28:59;;;;;;;3.20;0.73;;;;;;;12.26;99.34;99996.28;5033219;28;20992;-69
2022/09/16 01:31:32;;;;;;;4.10;0.73;;;;;;;12.28;99.60;99994.06;5033688;28;20430;-71
2022/09/16 01:34:05;;;;;;;3.90;0.90;;;;;;;12.26;100.00;99999.00;5033714;28;20423;-73
2022/09/16 01:36:41;;;;;;;3.50;0.90;;;;;;;12.26;100.00;99994.41;5033570;28;20848;-69
2022/09/16 01:39:18;;;;;;;4.70;1.20;;;;;;;12.28;100.00;100007.63;5033205;28;20478;-68
2022/09/16 01:42:01;;;;;;;2.97;0.60;;;;;;;12.24;100.00;100003.97;5033459;28;20471;-68
2022/09/16 01:44:38;;;;;;;3.53;1.10;;;;;;;12.24;100.00;100010.19;5033467;28;20432;-68
2022/09/16 01:47:14;;;;;;;2.90;0.60;;;;;;;12.19;100.00;100004.94;5033271;28;20471;-69
2022/09/16 01:49:46;;;;;;;4.60;1.00;;;;;;;12.16;100.00;100000.16;5033277;28;20870;-69
2022/09/16 01:52:21;;;;;;;3.00;0.70;;;;;;;12.23;100.00;99991.53;5033405;28;20434;-69
2022/09/16 01:54:53;;;;;;;2.90;0.70;;;;;;;12.18;100.00;99997.94;5033320;28;20431;-69
2022/09/16 01:57:24;;;;;;;12.33;1.57;;;;;;;12.15;100.00;99997.78;5033362;28;20423;-68
2022/09/16 01:59:57;;;;;;;3.73;1.13;;;;;;;12.15;100.00;100003.22;5033228;28;20833;-68
2022/09/16 02:02:29;;;;;;;4.67;1.17;;;;;;;12.12;100.00;99994.59;5033246;28;20433;-69
2022/09/16 02:04:57;;;;;;;3.00;0.70;;;;;;;12.15;100.00;100008.66;5033299;28;20882;-69
2022/09/16 02:07:29;;;;;;;4.70;0.80;;;;;;;12.15;100.00;99998.59;5033099;28;20478;-69
2022/09/16 02:10:05;;;;;;;3.37;0.70;;;;;;;12.13;100.00;100000.84;5033179;28;20459;-69
2022/09/16 02:12:38;;;;;;;3.07;0.73;;;;;;;12.12;100.00;100005.44;5033154;28;20470;-69
2022/09/16 02:15:08;;;;;;;3.63;0.93;;;;;;;12.09;100.00;100000.69;5033194;28;20427;-69
2022/09/16 02:17:41;;;;;;;3.50;0.80;;;;;;;12.09;100.00;99995.25;5033150;28;20439;-69
2022/09/16 02:20:12;;;;;;;4.97;1.20;;;;;;;12.12;100.00;99993.78;5079995;22;20554;-69
2022/09/16 02:22:43;;;;;;;4.33;0.80;;;;;;;12.13;100.00;99989.97;5072713;28;20942;-69
2022/09/16 02:25:12;;;;;;;3.53;0.80;;;;;;;12.11;100.00;100000.34;5073116;28;20479;-68
2022/09/16 02:27:41;;;;;;;4.60;0.97;;;;;;;12.05;100.00;99998.94;5072928;28;20857;-67
2022/09/16 02:30:11;;;;;;;4.23;1.03;;;;;;;12.02;100.00;99997.66;5075499;28;20472;-67
2022/09/16 02:32:43;;;;;;;5.67;1.23;;;;;;;12.07;100.00;100002.13;5076906;28;20441;-68
2022/09/16 02:35:13;;;;;;;5.50;1.33;;;;;;;12.04;100.00;99997.34;5076919;28;20444;-68
2022/09/16 02:37:44;;;;;;;6.30;0.83;;;;;;;12.02;100.00;99992.25;5077077;28;20429;-68
2022/09/16 02:40:15;;;;;;;3.33;0.87;;;;;;;11.99;100.00;99992.09;5076695;28;20474;-68
2022/09/16 02:42:41;;;;;;;4.67;0.97;;;;;;;11.90;100.00;99994.84;5076682;28;20426;-68
2022/09/16 02:45:09;;;;;;;3.57;0.80;;;;;;;11.89;100.00;99989.72;5076348;28;20953;-68
2022/09/16 02:47:45;;;;;;;3.77;1.00;;;;;;;11.86;100.00;99992.00;5076478;28;20481;-67
2022/09/16 02:50:17;;;;;;;4.60;1.30;;;;;;;11.93;100.00;99986.03;5076825;28;20518;-68
2022/09/16 02:52:49;;;;;;;3.50;1.00;;;;;;;11.96;100.00;99992.75;5076576;28;20841;-69
2022/09/16 02:55:34;;;;;;;3.50;0.90;;;;;;;11.95;100.00;99983.00;5076220;28;20820;-68
2022/09/16 02:58:00;;;;;;;4.50;1.23;;;;;;;11.94;100.00;99984.91;5076572;28;20433;-67
2022/09/16 03:00:29;;;;;;;7.30;0.90;;;;;;;11.94;100.00;99984.13;5076385;28;20469;-68
2022/09/16 03:02:57;;;;;;;3.20;0.67;;;;;;;11.97;100.00;99994.34;5076413;28;20441;-68
2022/09/16 03:05:27;;;;;;;4.80;1.20;;;;;;;12.02;100.00;99994.16;5076257;28;20444;-68
2022/09/16 03:07:53;;;;;;;5.00;1.27;;;;;;;12.02;100.00;99988.72;5076189;28;20480;-68
2022/09/16 03:10:22;;;;;;;3.33;0.83;;;;;;;11.97;100.00;99992.44;5076121;28;20472;-68
2022/09/16 03:12:58;;;;;;;3.63;0.93;;;;;;;11.96;100.00;99990.03;5076035;28;20479;-68
2022/09/16 03:15:42;;;;;;;3.63;0.97;;;;;;;11.95;100.00;99989.22;5076147;28;20425;-70
2022/09/16 03:18:38;;;;;;;8.27;1.10;;;;;;;11.96;100.00;99990.84;5076120;28;20433;-68
2022/09/16 03:21:16;;;;;;;3.93;1.00;;;;;;;11.98;100.00;99987.78;5075615;28;20473;-69
2022/09/16 03:23:49;;;;;;;11.30;1.30;;;;;;;11.94;100.00;99982.22;5075967;28;20432;-70
2022/09/16 03:26:21;;;;;;;9.27;1.50;;;;;;;11.91;100.00;99987.47;5075966;28;20841;-68
2022/09/16 03:28:56;;;;;;;5.37;1.13;;;;;;;11.88;100.00;99985.44;5075786;28;20547;-69
2022/09/16 03:31:28;;;;;;;3.60;1.10;;;;;;;11.86;100.00;99980.31;5075937;28;20424;-68
2022/09/16 03:34:04;;;;;;;6.70;1.13;;;;;;;11.87;100.00;99979.22;5075782;28;20802;-68
2022/09/16 03:36:34;;;;;;;3.33;1.03;;;;;;;11.91;100.00;99982.06;5075806;28;20444;-67
2022/09/16 03:39:03;;;;;;;3.73;1.20;;;;;;;11.84;100.00;99975.22;5075420;28;20799;-70
2022/09/16 03:41:31;;;;;;;3.47;0.77;;;;;;;11.89;100.00;99976.16;5074665;28;20441;-69
2022/09/16 03:43:59;;;;;;;3.63;0.83;;;;;;;11.89;100.00;99987.81;5075259;28;20943;-69
2022/09/16 03:46:27;;;;;;;3.67;1.00;;;;;;;11.82;100.00;99982.03;5075538;28;20445;-70
2022/09/16 03:48:55;;;;;;;6.40;0.90;;;;;;;11.80;100.00;99979.66;5075730;28;20480;-68
2022/09/16 03:51:22;;;;;;;3.90;1.00;;;;;;;11.81;100.00;99981.25;5075532;28;20437;-69
2022/09/16 03:53:49;;;;;;;3.63;0.87;;;;;;;11.85;100.00;99989.59;5075396;28;20820;-68
2022/09/16 03:56:15;;;;;;;4.10;1.23;;;;;;;11.85;100.00;99981.44;5075376;28;20499;-68
2022/09/16 03:58:42;;;;;;;3.83;1.10;;;;;;;11.73;100.00;99976.69;5075124;28;21011;-70
2022/09/16 04:01:08;;;;;;;3.10;0.70;;;;;;;11.82;100.00;99974.75;5075192;28;20472;-68
2022/09/16 04:03:36;;;;;;;4.03;1.07;;;;;;;11.81;100.00;99973.13;5075254;28;20438;-69
2022/09/16 04:06:04;;;;;;;3.80;1.00;;;;;;;11.71;100.00;99973.47;5075213;28;20446;-68
2022/09/16 04:08:31;;;;;;;5.47;1.57;;;;;;;11.69;100.00;99970.31;5075099;28;20485;-70
2022/09/16 04:10:58;;;;;;;3.70;1.23;;;;;;;11.68;100.00;99971.41;5075080;28;20462;-68
2022/09/16 04:13:26;;;;;;;3.90;1.10;;;;;;;11.62;100.00;99975.41;5075009;28;20446;-70
2022/09/16 04:15:52;;;;;;;3.30;0.93;;;;;;;11.62;100.00;99986.25;5074950;28;20445;-67
2022/09/16 04:18:18;;;;;;;4.03;1.27;;;;;;;11.60;100.00;99973.03;5074946;28;20433;-68
2022/09/16 04:20:45;;;;;;;3.93;1.00;;;;;;;11.58;100.00;99979.88;5074440;28;20472;-68
2022/09/16 04:23:13;;;;;;;3.20;0.80;;;;;;;11.58;100.00;99982.59;5074849;28;20450;-69
2022/09/16 04:25:39;;;;;;;7.23;1.23;;;;;;;11.56;100.00;99974.00;5074819;28;20445;-69
2022/09/16 04:28:06;;;;;;;4.27;1.30;;;;;;;11.57;100.00;99978.31;5074792;28;20477;-69
2022/09/16 04:30:32;;;;;;;4.40;1.30;;;;;;;11.59;100.00;99967.91;5074612;28;20484;-68
2022/09/16 04:32:59;;;;;;;4.17;1.50;;;;;;;11.55;100.00;99965.06;5074742;28;20445;-69
2022/09/16 04:35:25;;;;;;;4.07;1.20;;;;;;;11.53;100.00;99970.00;5074669;28;20445;-70
2022/09/16 04:37:52;;;;;;;7.23;1.40;;;;;;;11.50;100.00;99964.44;5074551;28;20433;-68
2022/09/16 04:40:20;;;;;;;5.97;1.23;;;;;;;11.51;100.00;99966.00;5074169;28;20500;-68
2022/09/16 04:42:49;;;;;;;5.67;1.47;;;;;;;11.53;100.00;99977.34;5074002;28;20449;-68
2022/09/16 04:45:15;;;;;;;3.83;0.90;;;;;;;11.54;100.00;99965.38;5073934;28;20452;-69
2022/09/16 04:47:42;;;;;;;5.13;1.20;;;;;;;11.57;100.00;99968.25;5074159;28;20441;-69
2022/09/16 04:50:10;;;;;;;5.70;1.10;;;;;;;11.54;100.00;99970.81;5074339;28;20497;-68
2022/09/16 04:52:36;;;;;;;3.70;1.13;;;;;;;11.52;100.00;99960.28;5074256;28;20468;-69
2022/09/16 04:55:03;;;;;;;4.37;0.97;;;;;;;11.46;100.00;99966.19;5074285;28;20483;-68
2022/09/16 04:57:31;;;;;;;4.73;1.50;;;;;;;11.45;100.00;99967.31;5073896;28;20931;-68
2022/09/16 04:59:58;;;;;;;4.20;1.40;;;;;;;11.48;100.00;99967.47;5074048;28;20469;-68
2022/09/16 05:02:25;;;;;;;5.30;1.30;;;;;;;11.46;100.00;99958.03;5074122;28;20469;-69
2022/09/16 05:04:51;;;;;;;3.63;0.97;;;;;;;11.50;100.00;99970.63;5074049;28;20452;-69
2022/09/16 05:07:17;;;;;;;4.20;1.13;;;;;;;11.49;100.00;99965.56;5073685;28;20938;-68
2022/09/16 05:09:44;;;;;;;6.10;1.13;;;;;;;11.54;100.00;99962.66;5073784;28;20489;-68
2022/09/16 05:12:10;;;;;;;7.03;1.70;;;;;;;11.57;100.00;99967.44;5073903;28;20441;-68
2022/09/16 05:14:38;;;;;;;4.13;1.10;;;;;;;11.57;100.00;99967.44;5073803;28;20445;-69
2022/09/16 05:17:06;;;;;;;5.63;0.90;;;;;;;11.53;100.00;99964.59;5073487;28;20930;-68
2022/09/16 05:19:32;;;;;;;3.90;1.03;;;;;;;11.59;100.00;99967.91;5073365;28;20484;-69
2022/09/16 05:21:59;;;;;;;5.57;1.20;;;;;;;11.61;100.00;99968.41;5073677;28;20449;-69
2022/09/16 05:24:25;;;;;;;3.90;1.30;;;;;;;11.59;100.00;99962.47;5073313;28;20436;-70
2022/09/16 05:26:52;;;;;;;3.23;0.83;;;;;;;11.61;100.00;99963.78;5073566;28;20446;-68
2022/09/16 05:29:18;;;;;;;4.33;1.57;;;;;;;11.69;100.00;99961.38;5073263;28;20493;-69
2022/09/16 05:31:47;;;;;;;7.43;2.00;;;;;;;11.68;100.00;99963.25;5073290;28;20938;-69
2022/09/16 05:34:15;;;;;;;4.43;1.20;;;;;;;11.69;100.00;99964.88;5073473;28;20476;-69
2022/09/16 05:36:43;;;;;;;4.97;1.10;;;;;;;11.72;100.00;99964.22;5073474;28;20441;-69
2022/09/16 05:39:10;;;;;;;11.10;1.10;;;;;;;11.77;100.00;99966.75;5073405;28;20492;-71
2022/09/16 05:41:36;;;;;;;10.57;1.77;;;;;;;11.75;100.00;99963.56;5073394;28;20536;-73
2022/09/16 05:44:05;;;;;;;6.30;1.27;;;;;;;11.73;100.00;99960.41;5073118;28;20444;-71
2022/09/16 05:46:32;;;;;;;3.30;0.80;;;;;;;11.75;100.00;99968.19;5073378;28;20449;-71
2022/09/16 05:48:59;;;;;;;3.80;1.20;;;;;;;11.81;100.00;99956.03;5073259;28;20488;-70
2022/09/16 05:51:26;;;;;;;3.80;1.10;;;;;;;11.87;100.00;99965.66;5073099;28;20856;-71
2022/09/16 05:53:54;;;;;;;3.87;1.23;;;;;;;11.83;100.00;99957.34;5073336;28;20442;-68
2022/09/16 05:56:24;;;;;;;4.93;1.30;;;;;;;11.82;100.00;99963.91;5073323;28;20437;-69
2022/09/16 05:58:51;;;;;;;3.63;0.83;;;;;;;11.89;100.00;99963.38;5073312;28;20526;-71
2022/09/16 06:01:20;;;;;;;14.33;1.53;;;;;;;11.94;100.00;99965.91;5073012;28;20434;-68
2022/09/16 06:03:49;;;;;;;5.63;1.30;;;;;;;12.00;100.00;99961.94;5072711;28;20487;-70
2022/09/16 06:06:22;;;;;;;10.73;1.57;;;;;;;12.09;100.00;99961.88;5073303;28;20473;-72
2022/09/16 06:08:49;;;;;;;4.50;1.30;;;;;;;12.09;100.00;99962.69;5072813;28;20465;-73
2022/09/16 06:11:16;;;;;;;4.30;1.20;;;;;;;12.17;100.00;99958.31;5073190;28;20445;-73
2022/09/16 06:13:43;;;;;;;4.50;1.53;;;;;;;12.23;100.00;99967.09;5073040;28;20452;-70
2022/09/16 06:16:10;;;;;;;6.33;1.20;;;;;;;12.29;100.00;99961.13;5073202;28;20445;-71
2022/09/16 06:18:37;;;;;;;7.43;0.93;;;;;;;12.33;100.00;99961.28;5072905;28;20999;-71
2022/09/16 06:21:05;;;;;;;6.03;1.17;;;;;;;12.25;100.00;99965.63;5072569;28;20477;-71
2022/09/16 06:23:34;;;;;;;4.03;1.10;;;;;;;12.35;100.00;99956.31;5073073;28;20441;-71
2022/09/16 06:26:01;;;;;;;6.30;0.90;;;;;;;12.34;100.00;99960.94;5073166;28;20444;-71
2022/09/16 06:28:28;;;;;;;3.73;1.27;;;;;;;12.41;100.00;99960.44;5072951;28;20484;-72
2022/09/16 06:31:02;;;;;;;4.53;1.40;;;;;;;12.40;100.00;99960.78;5072553;28;20461;-71
2022/09/16 06:33:28;;;;;;;3.30;1.07;;;;;;;12.54;99.46;99961.31;5072961;28;20430;-70
2022/09/16 06:35:55;;;;;;;4.70;1.27;;;;;;;12.58;99.91;99959.53;5072899;28;20449;-71
2022/09/16 06:38:22;;;;;;;6.80;1.30;;;;;;;12.67;99.05;99956.78;5072975;28;20449;-70
2022/09/16 06:40:50;;;;;;;3.60;1.13;;;;;;;12.71;99.57;99958.50;5072865;28;20461;-70
2022/09/16 06:43:16;;;;;;;6.80;1.70;;;;;;;12.79;99.85;99951.38;5072813;28;20477;-71
2022/09/16 06:45:43;;;;;;;4.40;1.10;;;;;;;12.89;98.67;99953.72;5072438;28;20448;-70
2022/09/16 06:48:09;;;;;;;5.20;1.17;;;;;;;12.94;98.61;99952.72;5072835;28;20448;-71
2022/09/16 06:50:36;;;;;;;5.63;1.40;;;;;;;13.01;98.03;99950.25;5072686;28;20542;-72
2022/09/16 06:53:03;;;;;;;8.00;1.50;;;;;;;13.10;97.46;99954.50;5072784;28;20449;-71
2022/09/16 06:55:29;;;;;;;7.67;1.03;;;;;;;13.06;96.05;99941.91;5072428;28;20827;-72
2022/09/16 06:57:57;;;;;;;4.70;1.40;;;;;;;12.98;96.30;99954.44;5072702;28;20444;-73
2022/09/16 07:00:24;;;;;;;4.40;0.90;;;;;;;13.02;96.08;99963.53;5072626;28;20461;-69
2022/09/16 07:02:50;;;;;;;4.50;1.43;;;;;;;13.00;96.63;99968.50;5072390;28;20983;-72
2022/09/16 07:05:16;;;;;;;3.67;1.07;;;;;;;13.04;95.97;99963.19;5072689;28;20441;-68
2022/09/16 07:07:43;;;;;;;4.73;1.70;;;;;;;13.03;96.53;99961.59;5072230;28;20801;-69
2022/09/16 07:10:10;;;;;;;8.00;1.50;;;;;;;13.03;96.81;99969.75;5072377;28;20490;-67
2022/09/16 07:12:36;;;;;;;3.20;0.83;;;;;;;13.09;95.74;99968.44;5072592;28;20851;-68
2022/09/16 07:15:04;;;;;;;3.63;0.87;;;;;;;13.09;96.17;99962.97;5072187;28;20444;-67
2022/09/16 07:17:31;;;;;;;3.83;1.13;;;;;;;13.17;95.93;99962.13;5075043;28;20844;-68
2022/09/16 07:19:57;;;;;;;3.10;0.70;;;;;;;13.23;96.71;99966.25;5075706;28;20503;-67
2022/09/16 07:22:24;;;;;;;3.57;0.90;;;;;;;13.32;96.66;99955.28;5075998;28;20506;-67
2022/09/16 07:24:50;;;;;;;6.60;1.50;;;;;;;13.45;94.70;99956.13;5075952;28;20445;-68
2022/09/16 07:27:16;;;;;;;4.20;1.13;;;;;;;13.56;93.77;99957.31;5075914;28;20448;-68
2022/09/16 07:29:43;;;;;;;3.73;0.80;;;;;;;13.67;91.31;99969.34;5076062;28;20512;-74
2022/09/16 07:32:11;;;;;;;5.37;0.97;;;;;;;13.69;92.30;99961.66;5076356;28;20472;-75
2022/09/16 07:34:37;;;;;;;4.10;1.00;;;;;;;13.76;91.62;99969.25;5075747;28;20838;-69
2022/09/16 07:37:04;;;;;;;5.47;0.90;;;;;;;13.78;90.25;99962.34;5075377;28;20942;-69
2022/09/16 07:39:30;;;;;;;7.70;1.20;;;;;;;13.81;90.36;99963.56;5075644;28;20467;-69
2022/09/16 07:41:57;;;;;;;4.90;0.80;;;;;;;13.85;90.13;99968.00;5075687;28;20441;-72
2022/09/16 07:44:23;;;;;;;4.53;1.30;;;;;;;13.96;87.73;99975.75;5075769;28;20469;-70
2022/09/16 07:46:50;;;;;;;11.70;0.90;;;;;;;14.02;87.97;99966.22;5075600;28;20453;-69
2022/09/16 07:49:17;;;;;;;3.70;0.77;;;;;;;14.03;88.64;99970.53;5075577;28;20496;-70
2022/09/16 07:51:44;;;;;;;6.87;1.70;;;;;;;14.07;88.99;99977.69;5075192;28;20951;-71
2022/09/16 07:54:13;;;;;;;2.80;0.60;;;;;;;14.24;89.02;99986.78;5075429;28;20445;-71
2022/09/16 07:56:41;;;;;;;4.60;1.43;;;;;;;14.32;87.05;99977.69;5075332;28;20777;-71
2022/09/16 07:59:11;;;;;;;3.20;0.80;;;;;;;14.39;85.52;99978.72;5075403;28;20461;-69
2022/09/16 08:01:38;;;;;;;4.50;0.80;;;;;;;14.43;86.05;99986.19;5075257;28;20437;-70
2022/09/16 08:04:04;;;;;;;3.57;0.80;;;;;;;14.60;85.96;99994.16;5074967;28;20486;-70
2022/09/16 08:06:33;;;;;;;3.90;1.00;;;;;;;14.72;85.24;99993.38;5075137;28;20441;-72
2022/09/16 08:09:01;;;;;;;5.33;0.90;;;;;;;14.72;85.23;99991.44;5075000;28;20507;-71
2022/09/16 08:11:28;;;;;;;8.97;1.37;;;;;;;14.74;85.39;99994.63;5075100;28;20441;-72
2022/09/16 08:13:55;;;;;;;3.47;1.23;;;;;;;14.78;85.72;99989.25;5075147;28;20441;-69
2022/09/16 08:16:22;;;;;;;6.27;0.90;;;;;;;14.79;84.50;99996.31;5074672;28;20890;-70
2022/09/16 08:18:49;;;;;;;2.97;0.60;;;;;;;14.75;85.28;99989.97;5074689;28;20452;-72
2022/09/16 08:21:18;;;;;;;3.50;1.00;;;;;;;14.82;84.29;99990.94;5074984;28;20445;-72
2022/09/16 08:23:46;;;;;;;4.53;0.70;;;;;;;14.95;83.92;99990.94;5074900;28;20444;-71
2022/09/16 08:26:14;;;;;;;5.33;1.00;;;;;;;14.90;83.10;99994.69;5074794;28;20430;-70
2022/09/16 08:28:43;;;;;;;4.10;1.00;;;;;;;14.93;82.96;99990.50;5074419;28;20540;-72
2022/09/16 08:31:10;;;;;;;3.80;0.77;;;;;;;14.94;82.45;99997.53;5074636;28;20566;-71
2022/09/16 08:33:39;;;;;;;3.40;0.73;;;;;;;15.00;83.34;99988.75;5074615;28;20438;-70
2022/09/16 08:36:10;;;;;;;3.77;0.90;;;;;;;15.20;83.79;99988.94;5074674;28;20445;-70
2022/09/16 08:38:36;;;;;;;4.70;1.00;;;;;;;15.30;81.21;99983.75;5074556;28;20426;-71
2022/09/16 08:41:15;;;;;;;3.20;0.80;;;;;;;15.30;81.40;99989.22;5074242;28;20449;-71
2022/09/16 08:43:47;;;;;;;3.30;1.03;;;;;;;15.28;80.28;99990.72;5074571;28;20433;-71
2022/09/16 08:46:19;;;;;;;3.53;0.73;;;;;;;15.24;80.25;99985.16;5074145;28;20451;-71
2022/09/16 08:48:53;;;;;;;3.37;0.90;;;;;;;15.40;81.31;99985.19;5074415;28;20486;-70
2022/09/16 08:51:22;;;;;;;3.33;0.60;;;;;;;15.48;79.52;99980.72;5074319;28;20433;-71
2022/09/16 08:53:54;;;;;;;3.20;0.70;;;;;;;15.55;76.86;99984.44;5074252;28;20429;-72
2022/09/16 08:56:26;;;;;;;4.33;0.70;;;;;;;15.51;76.37;99982.78;5073858;28;20500;-70
2022/09/16 08:58:55;;;;;;;9.40;0.80;;;;;;;15.60;76.18;99989.66;5073939;28;20976;-69
2022/09/16 09:01:29;;;;;;;3.50;0.70;;;;;;;15.67;77.20;99974.63;5073770;28;20996;-71
2022/09/16 09:03:57;;;;;;;3.77;0.80;;;;;;;15.88;74.19;99986.09;5074191;28;20768;-71
2022/09/16 09:06:44;;;;;;;10.57;1.33;;;;;;;15.97;75.55;99985.94;5074060;28;20442;-71
2022/09/16 09:09:23;;;;;;;5.70;0.63;;;;;;;16.08;75.19;99981.53;5073920;28;20461;-70
2022/09/16 09:12:02;;;;;;;4.70;0.70;;;;;;;16.19;73.06;99990.78;5074012;28;20474;-69
2022/09/16 09:14:41;;;;;;;4.30;0.90;;;;;;;15.87;71.04;99984.53;5073926;28;20433;-70
2022/09/16 09:17:17;;;;;;;4.40;0.90;;;;;;;15.79;72.01;99978.06;5073804;28;20429;-71
2022/09/16 09:20:04;;;;;;;3.17;0.77;;;;;;;15.90;73.65;99981.09;5073409;28;20476;-71
2022/09/16 09:22:46;;;;;;;5.50;0.93;;;;;;;15.92;71.06;99978.81;5073453;28;20425;-72
2022/09/16 09:25:31;;;;;;;5.80;0.70;;;;;;;15.80;67.87;99979.66;5073450;28;20967;-72
2022/09/16 09:28:12;;;;;;;6.47;0.90;;;;;;;15.69;70.46;99975.09;5073443;28;20418;-71
2022/09/16 09:30:41;;;;;;;6.07;0.80;;;;;;;15.79;69.31;99969.09;5073578;28;20866;-70
2022/09/16 09:33:20;;;;;;;6.07;1.00;;;;;;;15.94;68.45;99967.50;5073798;28;20453;-71
2022/09/16 09:36:02;;;;;;;3.30;0.67;;;;;;;16.12;64.36;99980.50;5073259;28;20902;-71
2022/09/16 09:38:58;;;;;;;2.70;0.50;;;;;;;16.24;63.78;99971.38;5072917;28;20429;-72
2022/09/16 09:41:31;;;;;;;2.80;0.67;;;;;;;16.25;62.24;99967.53;5073268;28;20433;-71
2022/09/16 09:44:07;;;;;;;4.07;0.70;;;;;;;16.32;62.75;99966.88;5073570;28;20506;-71
2022/09/16 09:46:37;;;;;;;3.37;0.60;;;;;;;16.49;60.87;99952.03;5073504;28;20832;-72
2022/09/16 09:49:11;;;;;;;2.60;0.40;;;;;;;16.52;59.96;99975.94;5073406;28;20441;-72
2022/09/16 09:51:42;;;;;;;6.60;1.70;;;;;;;16.52;60.38;99965.03;5073616;28;20422;-72
2022/09/16 09:54:25;;;;;;;3.97;0.80;;;;;;;16.45;61.10;99959.38;5073433;28;20437;-73
2022/09/16 09:56:57;;;;;;;4.60;0.70;;;;;;;16.62;60.88;99969.94;5073501;28;20598;-72
2022/09/16 09:59:31;;;;;;;3.20;0.53;;;;;;;16.68;60.98;99956.75;5073182;28;20514;-72
2022/09/16 10:02:00;;;;;;;8.60;0.93;;;;;;;16.72;61.11;99958.44;5073525;28;20456;-71
2022/09/16 10:04:27;;;;;;;11.90;0.80;;;;;;;16.69;56.91;99964.63;5073249;28;20437;-73
2022/09/16 10:06:56;;;;;;;3.57;0.50;;;;;;;16.70;58.46;99954.47;5072952;28;20913;-71
2022/09/16 10:09:23;;;;;;;11.63;0.83;;;;;;;16.63;58.27;99963.28;5072749;28;21061;-71
2022/09/16 10:11:51;;;;;;;4.40;0.90;;;;;;;16.51;59.34;99955.19;5073158;28;20437;-71
2022/09/16 10:14:31;;;;;;;4.70;0.67;;;;;;;16.51;58.71;99952.47;5073238;28;20464;-71
2022/09/16 10:17:01;;;;;;;6.80;1.03;;;;;;;16.45;59.42;99948.44;5073174;28;20508;-71
2022/09/16 10:19:31;;;;;;;8.40;0.70;;;;;;;16.46;58.27;99945.34;5072579;28;20485;-71
2022/09/16 10:22:10;;;;;;;2.80;0.70;;;;;;;16.63;59.40;99944.94;5073123;28;20422;-71
2022/09/16 10:24:38;;;;;;;2.77;0.50;;;;;;;16.84;57.64;99939.19;5073427;28;20426;-71
2022/09/16 10:27:19;;;;;;;3.37;0.50;;;;;;;16.90;58.22;99948.66;5073304;28;20440;-71
2022/09/16 10:29:48;;;;;;;2.90;0.70;;;;;;;16.92;57.93;99944.81;5073018;28;20523;-71
2022/09/16 10:32:19;;;;;;;3.27;0.67;;;;;;;16.96;57.06;99943.72;5072916;28;20445;-72
2022/09/16 10:34:47;;;;;;;2.90;0.60;;;;;;;16.93;54.73;99943.66;5073043;28;20433;-71
2022/09/16 10:37:19;;;;;;;2.70;0.43;;;;;;;16.84;55.70;99950.13;5072749;28;20988;-72
2022/09/16 10:39:51;;;;;;;4.00;0.90;;;;;;;16.79;58.28;99939.47;5072916;28;20458;-72
2022/09/16 10:42:21;;;;;;;4.77;0.60;;;;;;;16.80;57.28;99954.72;5072924;28;20426;-73
2022/09/16 10:44:50;;;;;;;3.63;0.53;;;;;;;17.06;58.66;99940.41;5072636;28;20943;-71
2022/09/16 10:47:20;;;;;;;2.83;0.50;;;;;;;17.44;55.62;99937.97;5072881;28;20445;-71
2022/09/16 10:49:50;;;;;;;4.17;0.70;;;;;;;17.70;54.74;99940.81;5073041;28;20469;-71
2022/09/16 10:52:18;;;;;;;5.37;0.93;;;;;;;17.93;54.45;99940.84;5076784;28;20487;-72
2022/09/16 10:54:45;;;;;;;3.53;0.70;;;;;;;18.08;52.01;99937.19;5076680;28;20445;-71
2022/09/16 10:57:27;;;;;;;2.60;0.37;;;;;;;17.89;52.80;99937.25;5076633;28;20532;-71
2022/09/16 11:00:07;;;;;;;5.73;1.03;;;;;;;17.66;52.02;99939.94;5076659;28;20548;-71
2022/09/16 11:03:01;;;;;;;3.37;0.60;;;;;;;17.52;52.93;99945.19;5076207;28;20899;-71
2022/09/16 11:05:33;;;;;;;3.53;0.70;;;;;;;17.40;53.26;99944.22;5076439;28;20425;-71
2022/09/16 11:08:11;;;;;;;3.40;0.53;;;;;;;17.27;54.17;99936.53;5076109;28;20802;-70
2022/09/16 11:10:44;;;;;;;4.87;0.70;;;;;;;17.33;53.33;99932.31;5075844;28;20888;-70
2022/09/16 11:13:26;;;;;;;4.43;0.70;;;;;;;17.57;53.51;99933.91;5076337;28;20532;-70
2022/09/16 11:16:07;;;;;;;4.87;1.17;;;;;;;18.14;51.87;99938.44;5076216;28;20425;-70
2022/09/16 11:18:46;;;;;;;7.27;0.93;;;;;;;19.08;51.39;99946.00;5076058;28;20418;-70
2022/09/16 11:21:29;;;;;;;4.00;0.63;;;;;;;19.71;47.90;99949.88;5075773;28;20497;-71
2022/09/16 11:24:17;;;;;;;2.90;0.40;;;;;;;19.76;46.26;99952.28;5076091;28;20425;-71
2022/09/16 11:26:52;;;;;;;3.37;0.60;;;;;;;19.68;46.14;99945.91;5075965;28;20422;-70
2022/09/16 11:29:37;;;;;;;4.03;0.50;;;;;;;20.40;44.35;99941.75;5075877;28;20468;-70
2022/09/16 11:32:16;;;;;;;4.30;0.90;;;;;;;20.59;44.08;99932.50;5075885;28;20461;-71
2022/09/16 11:35:06;;;;;;;4.10;0.63;;;;;;;21.46;43.56;99935.19;5075785;28;20425;-70
2022/09/16 11:37:39;;;;;;;2.80;0.50;;;;;;;21.89;41.81;99932.50;5075667;28;20437;-71
2022/09/16 11:40:18;;;;;;;2.70;0.40;;;;;;;21.07;43.05;99915.78;5075551;28;20464;-68
2022/09/16 11:42:56;;;;;;;3.33;0.50;;;;;;;21.29;42.10;99931.19;5075666;28;20429;-71
2022/09/16 11:45:38;;;;;;;3.33;0.60;;;;;;;21.74;41.56;99920.69;5075531;28;20430;-71